KELM/ELM METAR and TAF weather

Enter ICAO airport designator
Station Type Date Time Source
KELM METAR 2020/07/05 15:53 UTC NOAA

KELM 051553Z 29006KT 10SM CLR 30/11 A3001 RMK AO2 SLP154 T03000111


Station Type Date Time Source
KELM Decoded METAR 2020/07/05 15:53 UTC NOAA

ELMIRA COUNTY AIRPORT, NY, United States (KELM) 42-10N 76-54W 302M
Jul 05, 2020 - 11:53 AM EDT / 2020.07.05 1553 UTC
Wind: from the WNW (290 degrees) at 7 MPH (6 KT):0
Visibility: 10 mile(s):0
Sky conditions: clear
Temperature: 86.0 F (30.0 C)
Dew Point: 52.0 F (11.1 C)
Relative Humidity: 31%
Pressure (altimeter): 30.01 in. Hg (1016 hPa)
ob: KELM 051553Z 29006KT 10SM CLR 30/11 A3001 RMK AO2 SLP154 T03000111
cycle: 16

Station Type Date Time Source
KELM TAF 2020/07/05 12:45 UTC NOAA

TAF KELM 051142Z 0512/0612 VRB02KT 1SM BR BKN002
TEMPO 0512/0513 5SM BR SCT002
FM051300 25004KT P6SM FEW050
FM051900 32006KT P6SM FEW080
FM060000 VRB03KT P6SM SKC
FM060800 VRB03KT 3SM BR SKC
TEMPO 0609/0612 2SM BR

Example: see airport list